createdAt,value
2024-02-03T00:01:28.577Z,54.26
2024-02-03T00:03:56.627Z,54.57
2024-02-03T00:06:23.943Z,54.43
2024-02-03T00:08:51.941Z,54.38
2024-02-03T00:11:19.220Z,54.49
2024-02-03T00:13:46.375Z,54.57
2024-02-03T00:16:13.621Z,55.17
2024-02-03T00:18:40.971Z,55.32
2024-02-03T00:21:08.772Z,55.22
2024-02-03T00:23:35.726Z,55.02
2024-02-03T00:26:02.729Z,54.76
2024-02-03T00:28:29.919Z,54.91
2024-02-03T00:30:56.803Z,55.03
2024-02-03T00:33:23.852Z,55.16
2024-02-03T00:35:51.012Z,55.48
2024-02-03T00:38:18.247Z,55.36
2024-02-03T00:40:45.352Z,54.96
2024-02-03T00:43:15.708Z,54.23
2024-02-03T00:45:46.279Z,54.12
2024-02-03T00:48:13.929Z,53.96
2024-02-03T00:50:41.381Z,54.04
2024-02-03T00:53:08.790Z,54.27
2024-02-03T00:55:36.213Z,54.23
2024-02-03T00:58:03.516Z,54.51
2024-02-03T01:00:30.909Z,55.18
2024-02-03T01:02:58.250Z,55.49
2024-02-03T01:05:25.496Z,55.42
2024-02-03T01:07:53.475Z,55.37
2024-02-03T01:10:21.736Z,55.64
2024-02-03T01:12:48.894Z,55.63
2024-02-03T01:15:16.106Z,55.71
2024-02-03T01:17:43.115Z,56.28
2024-02-03T01:20:10.952Z,56.32
2024-02-03T01:22:37.964Z,55.99
2024-02-03T01:25:05.743Z,55.92
2024-02-03T01:27:32.858Z,55.88
2024-02-03T01:29:59.980Z,55.83
2024-02-03T01:32:27.108Z,55.79
2024-02-03T01:34:54.267Z,56.08
2024-02-03T01:37:21.394Z,56.42
2024-02-03T01:39:48.413Z,56.48
2024-02-03T01:42:15.643Z,56.21
2024-02-03T01:44:43.225Z,56.19
2024-02-03T01:47:11.285Z,55.99
2024-02-03T01:49:38.681Z,55.72
2024-02-03T01:52:07.223Z,55.79
2024-02-03T01:54:35.425Z,56.21
2024-02-03T01:57:03.123Z,56.72
2024-02-03T01:59:32.292Z,56.71
2024-02-03T02:02:02.363Z,56.41
2024-02-03T02:04:30.270Z,56.62
2024-02-03T02:06:58.912Z,56.75
2024-02-03T02:09:27.874Z,56.73
2024-02-03T02:11:56.347Z,57.05
2024-02-03T02:14:25.260Z,57.36
2024-02-03T02:16:53.753Z,57.30
2024-02-03T02:19:20.798Z,57.20
2024-02-03T02:21:47.965Z,57.19
2024-02-03T02:24:16.621Z,57.48
2024-02-03T02:26:44.120Z,57.71
2024-02-03T02:29:11.050Z,58.16
2024-02-03T02:31:38.020Z,58.04
2024-02-03T02:34:05.063Z,58.05
2024-02-03T02:36:32.152Z,57.95
2024-02-03T02:38:59.246Z,57.47
2024-02-03T02:41:26.216Z,57.40
2024-02-03T02:43:53.366Z,57.67
2024-02-03T02:46:26.683Z,58.18
2024-02-03T02:48:54.329Z,58.14
2024-02-03T02:51:21.678Z,57.93
2024-02-03T02:53:48.906Z,57.85
2024-02-03T02:56:16.118Z,57.99
2024-02-03T02:58:43.313Z,57.84
2024-02-03T03:01:10.410Z,58.17
2024-02-03T03:03:37.726Z,58.25
2024-02-03T03:06:05.079Z,58.18
2024-02-03T03:08:32.130Z,57.85
2024-02-03T03:10:59.230Z,57.92
2024-02-03T03:13:26.710Z,57.89
2024-02-03T03:15:54.382Z,58.52
2024-02-03T03:18:21.723Z,58.24
2024-02-03T03:20:48.875Z,57.89
2024-02-03T03:23:15.979Z,57.84
2024-02-03T03:25:44.017Z,57.78
2024-02-03T03:28:10.862Z,57.75
2024-02-03T03:30:38.078Z,58.54
2024-02-03T03:33:05.516Z,58.93
2024-02-03T03:35:32.588Z,58.84
2024-02-03T03:37:59.509Z,58.65
2024-02-03T03:40:26.692Z,58.53
2024-02-03T03:42:53.950Z,58.24
2024-02-03T03:45:21.149Z,58.59
2024-02-03T03:47:48.324Z,58.82
2024-02-03T03:50:15.689Z,59.13
2024-02-03T03:52:42.903Z,58.91
2024-02-03T03:55:10.261Z,58.32
2024-02-03T03:57:37.483Z,57.91
2024-02-03T04:00:10.920Z,57.75
2024-02-03T04:02:38.622Z,58.50
2024-02-03T04:05:09.114Z,58.50
2024-02-03T04:07:36.259Z,58.68
2024-02-03T04:10:03.563Z,58.39
2024-02-03T04:12:30.881Z,58.28
2024-02-03T04:14:58.199Z,58.12
2024-02-03T04:17:25.371Z,58.05
2024-02-03T04:19:52.593Z,57.99
2024-02-03T04:22:20.471Z,58.43
2024-02-03T04:24:47.472Z,58.75
2024-02-03T04:27:14.462Z,58.63
2024-02-03T04:29:42.166Z,58.67
2024-02-03T04:32:09.456Z,58.83
2024-02-03T04:34:36.859Z,58.64
2024-02-03T04:37:04.451Z,58.88
2024-02-03T04:39:31.911Z,59.22
2024-02-03T04:41:59.238Z,59.06
2024-02-03T04:44:26.564Z,59.23
2024-02-03T04:46:53.894Z,58.85
2024-02-03T04:49:21.150Z,58.37
2024-02-03T04:51:48.611Z,58.84
2024-02-03T04:54:15.976Z,59.30
2024-02-03T04:56:43.266Z,59.62
2024-02-03T04:59:10.347Z,58.66
2024-02-03T05:01:37.846Z,58.31
2024-02-03T05:04:04.889Z,57.87
2024-02-03T05:06:32.281Z,57.96
2024-02-03T05:09:01.214Z,57.83
2024-02-03T05:11:28.540Z,58.65
2024-02-03T05:13:55.738Z,59.03
2024-02-03T05:16:22.798Z,58.69
2024-02-03T05:18:50.102Z,58.15
2024-02-03T05:21:17.296Z,58.30
2024-02-03T05:23:44.371Z,58.45
2024-02-03T05:26:11.380Z,58.86
2024-02-03T05:28:39.319Z,59.46
2024-02-03T05:31:06.611Z,59.41
2024-02-03T05:33:35.119Z,59.31
2024-02-03T05:36:02.624Z,59.10
2024-02-03T05:38:29.808Z,59.31
2024-02-03T05:40:57.101Z,59.64
2024-02-03T05:43:24.260Z,59.82
2024-02-03T05:45:51.634Z,59.84
2024-02-03T05:48:19.069Z,59.47
2024-02-03T05:50:46.117Z,59.52
2024-02-03T05:53:13.357Z,59.53
2024-02-03T05:55:40.543Z,59.47
2024-02-03T05:58:07.576Z,59.93
2024-02-03T06:00:34.844Z,60.16
2024-02-03T06:03:02.410Z,59.95
2024-02-03T06:05:29.466Z,59.68
2024-02-03T06:07:56.739Z,59.57
2024-02-03T06:10:24.303Z,59.16
2024-02-03T06:12:51.458Z,59.68
2024-02-03T06:15:18.579Z,60.11
2024-02-03T06:17:46.073Z,59.84
2024-02-03T06:20:13.376Z,59.56
2024-02-03T06:22:40.421Z,59.34
2024-02-03T06:25:07.601Z,59.19
2024-02-03T06:27:34.696Z,59.41
2024-02-03T06:30:01.945Z,59.60
2024-02-03T06:32:29.168Z,59.55
2024-02-03T06:34:56.610Z,59.24
2024-02-03T06:37:24.084Z,58.98
2024-02-03T06:39:51.192Z,59.53
2024-02-03T06:42:18.611Z,59.65
2024-02-03T06:44:47.004Z,60.10
2024-02-03T06:47:14.325Z,59.86
2024-02-03T06:49:41.517Z,59.94
2024-02-03T06:52:08.750Z,59.66
2024-02-03T06:54:35.629Z,59.90
2024-02-03T06:57:02.874Z,59.96
2024-02-03T06:59:30.271Z,60.31
2024-02-03T07:01:57.485Z,60.16
2024-02-03T07:04:24.656Z,59.06
2024-02-03T07:06:51.868Z,57.57
2024-02-03T07:09:19.019Z,55.59
2024-02-03T07:11:56.676Z,53.26
2024-02-03T07:14:31.032Z,51.00
2024-02-03T07:16:58.860Z,48.36
2024-02-03T07:19:26.256Z,45.92
2024-02-03T07:21:53.874Z,44.45
2024-02-03T07:24:21.363Z,42.61
2024-02-03T07:26:48.537Z,40.97
2024-02-03T07:29:16.207Z,39.22
2024-02-03T07:31:43.664Z,37.58
2024-02-03T07:34:11.335Z,36.00
2024-02-03T07:36:39.043Z,35.09
2024-02-03T07:39:06.538Z,33.77
2024-02-03T07:41:34.874Z,33.21
2024-02-03T07:44:02.017Z,32.20
2024-02-03T07:46:29.250Z,31.53
2024-02-03T07:48:56.962Z,30.91
2024-02-03T07:51:24.123Z,30.32
2024-02-03T07:53:51.742Z,29.77
2024-02-03T07:56:19.275Z,29.25
2024-02-03T07:58:46.881Z,28.83
2024-02-03T08:01:14.703Z,28.25
2024-02-03T08:03:42.007Z,27.74
2024-02-03T08:06:10.041Z,27.11
2024-02-03T08:08:37.619Z,26.60
2024-02-03T08:11:04.942Z,26.42
2024-02-03T08:13:32.173Z,26.21
2024-02-03T08:16:00.281Z,25.60
2024-02-03T08:18:31.896Z,25.31
2024-02-03T08:20:59.101Z,24.84
2024-02-03T08:23:26.413Z,24.42
2024-02-03T08:25:53.440Z,23.85
2024-02-03T08:28:21.682Z,23.64
2024-02-03T08:30:49.116Z,23.20
2024-02-03T08:33:17.428Z,22.92
2024-02-03T08:35:45.171Z,22.40
2024-02-03T08:38:13.261Z,21.99
2024-02-03T08:40:40.984Z,21.63
2024-02-03T08:43:08.339Z,21.42
2024-02-03T08:45:35.779Z,21.08
2024-02-03T08:48:03.767Z,20.74
2024-02-03T08:50:31.016Z,20.80
2024-02-03T08:52:58.972Z,20.26
2024-02-03T08:55:26.297Z,19.97
2024-02-03T08:57:53.803Z,19.82
2024-02-03T09:00:22.939Z,19.50
2024-02-03T09:02:51.157Z,19.10
2024-02-03T09:05:20.396Z,19.16
2024-02-03T09:07:48.627Z,18.89
2024-02-03T09:10:15.641Z,18.59
2024-02-03T09:12:43.169Z,18.23
2024-02-03T09:15:10.490Z,18.13
2024-02-03T09:17:37.954Z,17.82
2024-02-03T09:20:05.614Z,17.51
2024-02-03T09:22:33.790Z,17.36
2024-02-03T09:25:01.495Z,17.18
2024-02-03T09:27:29.911Z,16.94
2024-02-03T09:29:57.058Z,17.02
2024-02-03T09:32:27.650Z,16.93
2024-02-03T09:34:55.615Z,16.97
2024-02-03T09:39:54.082Z,16.12
2024-02-03T09:42:21.386Z,16.24
2024-02-03T09:44:49.884Z,16.05
2024-02-03T09:47:19.160Z,15.54
2024-02-03T09:49:48.800Z,15.36
2024-02-03T09:52:18.333Z,14.93
2024-02-03T09:54:49.432Z,14.77
2024-02-03T09:57:16.809Z,14.62
2024-02-03T09:59:50.511Z,14.64
2024-02-03T10:02:18.805Z,14.43
2024-02-03T10:04:46.589Z,14.15
2024-02-03T10:07:18.994Z,13.92
2024-02-03T10:12:21.877Z,13.62
2024-02-03T10:15:06.454Z,13.49
2024-02-03T10:17:34.480Z,13.92
2024-02-03T10:20:01.687Z,13.56
2024-02-03T10:22:28.996Z,13.70
2024-02-03T10:25:07.072Z,13.59
2024-02-03T10:27:34.133Z,13.79
2024-02-03T10:30:02.079Z,13.73
2024-02-03T10:32:29.410Z,13.64
2024-02-03T10:34:57.703Z,13.30
2024-02-03T10:37:24.925Z,13.48
2024-02-03T10:39:52.823Z,13.40
2024-02-03T10:42:22.112Z,13.29
2024-02-03T10:44:50.441Z,13.32
2024-02-03T10:47:22.546Z,12.84
2024-02-03T10:49:51.172Z,12.60
2024-02-03T10:52:20.980Z,12.41
2024-02-03T10:54:54.620Z,12.25
2024-02-03T10:57:23.042Z,12.44
2024-02-03T10:59:50.180Z,12.16
2024-02-03T11:02:21.602Z,11.98
2024-02-03T11:04:49.581Z,11.82
2024-02-03T11:07:25.319Z,11.64
2024-02-03T11:09:57.482Z,11.41
2024-02-03T11:12:33.162Z,11.40
2024-02-03T11:15:00.301Z,11.28
2024-02-03T11:17:32.421Z,10.87
2024-02-03T11:20:04.229Z,10.93
2024-02-03T11:22:31.499Z,10.96
2024-02-03T11:25:02.286Z,10.35
2024-02-03T11:27:29.457Z,10.63
2024-02-03T11:30:06.821Z,10.73
2024-02-03T11:32:33.744Z,10.67
2024-02-03T11:35:04.832Z,10.58
2024-02-03T11:37:31.962Z,10.74
2024-02-03T11:40:07.805Z,10.91
2024-02-03T11:42:36.085Z,10.92
2024-02-03T11:45:23.869Z,10.96
2024-02-03T11:47:51.589Z,10.70
2024-02-03T11:50:19.638Z,10.41
2024-02-03T11:52:47.231Z,10.22
2024-02-03T11:55:14.905Z,10.22
2024-02-03T11:57:43.098Z,10.14
2024-02-03T12:00:11.338Z,10.06
2024-02-03T12:02:38.705Z,9.65
2024-02-03T12:05:07.303Z,9.85
2024-02-03T12:07:35.437Z,9.71
2024-02-03T12:10:04.288Z,9.48
2024-02-03T12:12:34.290Z,9.40
2024-02-03T12:15:02.829Z,9.77
2024-02-03T12:17:30.151Z,9.60
2024-02-03T12:19:58.848Z,9.59
2024-02-03T12:22:26.135Z,9.43
2024-02-03T12:24:53.427Z,9.46
2024-02-03T12:27:24.007Z,9.20
2024-02-03T12:29:51.754Z,9.58
2024-02-03T12:32:18.936Z,9.49
2024-02-03T12:34:46.230Z,9.48
2024-02-03T12:37:13.750Z,9.73
2024-02-03T12:39:41.202Z,9.51
2024-02-03T12:42:09.764Z,9.59
2024-02-03T12:44:36.889Z,9.46
2024-02-03T12:47:04.902Z,9.48
2024-02-03T12:49:32.482Z,9.36
2024-02-03T12:52:00.357Z,9.25
2024-02-03T12:54:27.997Z,9.30
2024-02-03T12:56:55.713Z,9.53
2024-02-03T12:59:23.737Z,9.86
2024-02-03T13:01:51.238Z,10.08
2024-02-03T13:04:18.494Z,9.90
2024-02-03T13:06:46.043Z,9.95
2024-02-03T13:09:13.425Z,9.94
2024-02-03T13:11:40.632Z,9.97
2024-02-03T13:14:08.135Z,9.90
2024-02-03T13:16:35.391Z,10.06
2024-02-03T13:19:02.697Z,10.15
2024-02-03T13:21:29.965Z,10.23
2024-02-03T13:23:57.223Z,10.26
2024-02-03T13:26:24.751Z,10.12
2024-02-03T13:28:51.878Z,10.15
2024-02-03T13:31:24.159Z,10.09
2024-02-03T13:33:51.432Z,10.20
2024-02-03T13:36:19.455Z,10.12
2024-02-03T13:38:46.774Z,10.37
2024-02-03T13:41:14.108Z,10.46
2024-02-03T13:43:41.091Z,10.56
2024-02-03T13:46:08.520Z,10.69
2024-02-03T13:48:36.132Z,10.92
2024-02-03T13:51:04.015Z,11.12
2024-02-03T13:53:31.671Z,11.14
2024-02-03T13:56:01.960Z,10.98
2024-02-03T13:58:29.821Z,11.16
2024-02-03T14:00:57.120Z,11.18
2024-02-03T14:03:24.329Z,11.29
2024-02-03T14:05:51.968Z,11.44
2024-02-03T14:08:20.867Z,11.61
2024-02-03T14:10:49.672Z,11.69
2024-02-03T14:13:16.782Z,11.61
2024-02-03T14:15:44.610Z,11.67
2024-02-03T14:18:12.022Z,11.86
2024-02-03T14:20:39.374Z,12.00
2024-02-03T14:23:06.613Z,12.10
2024-02-03T14:25:35.774Z,12.26
2024-02-03T14:28:04.904Z,12.64
2024-02-03T14:30:32.024Z,12.93
2024-02-03T14:35:28.772Z,12.94
2024-02-03T14:37:56.894Z,13.08
2024-02-03T14:40:24.343Z,13.30
2024-02-03T14:42:52.304Z,13.45
2024-02-03T14:45:19.474Z,13.61
2024-02-03T14:47:46.787Z,13.46
2024-02-03T14:50:13.993Z,13.70
2024-02-03T14:52:41.210Z,14.38
2024-02-03T14:55:09.190Z,14.45
2024-02-03T14:57:36.397Z,14.92
2024-02-03T15:00:05.067Z,15.27
2024-02-03T15:02:36.068Z,15.53
2024-02-03T15:05:06.056Z,15.48
2024-02-03T15:07:33.915Z,15.86
2024-02-03T15:10:02.328Z,15.79
2024-02-03T15:12:34.208Z,15.98
2024-02-03T15:15:01.689Z,16.08
2024-02-03T15:17:29.125Z,16.24
2024-02-03T15:19:56.243Z,16.91
2024-02-03T15:22:23.562Z,17.24
2024-02-03T15:24:50.646Z,17.55
2024-02-03T15:27:21.080Z,17.70
2024-02-03T15:29:48.216Z,18.25
2024-02-03T15:32:17.928Z,18.16
2024-02-03T15:34:45.768Z,18.47
2024-02-03T15:37:13.412Z,18.60
2024-02-03T15:39:40.758Z,18.84
2024-02-03T15:42:07.812Z,19.05
2024-02-03T15:44:41.498Z,19.23
2024-02-03T15:47:13.293Z,19.67
2024-02-03T15:49:40.344Z,20.22
2024-02-03T15:52:07.448Z,20.41
2024-02-03T15:54:34.541Z,20.46
2024-02-03T15:57:01.912Z,20.83
2024-02-03T15:59:29.291Z,21.25
2024-02-03T16:01:56.409Z,21.60
2024-02-03T16:04:24.107Z,22.20
2024-02-03T16:06:51.914Z,22.53
2024-02-03T16:09:20.347Z,22.85
2024-02-03T16:11:48.296Z,23.30
2024-02-03T16:14:15.628Z,23.93
2024-02-03T16:16:43.244Z,24.81
2024-02-03T16:19:11.205Z,25.65
2024-02-03T16:21:38.533Z,26.41
2024-02-03T16:24:06.109Z,27.28
2024-02-03T16:29:00.393Z,28.28
2024-02-03T16:31:27.904Z,28.87
2024-02-03T16:33:55.514Z,29.41
2024-02-03T16:36:22.825Z,29.65
2024-02-03T16:38:49.977Z,30.26
2024-02-03T16:41:19.665Z,30.97
2024-02-03T16:43:47.009Z,31.29
2024-02-03T16:46:14.480Z,31.74
2024-02-03T16:48:41.814Z,32.37
2024-02-03T16:51:09.952Z,32.93
2024-02-03T16:53:37.217Z,33.15
2024-02-03T16:56:05.281Z,33.49
2024-02-03T16:58:32.722Z,33.88
2024-02-03T17:01:00.159Z,34.36
2024-02-03T17:03:27.502Z,34.71
2024-02-03T17:05:55.711Z,35.10
2024-02-03T17:08:23.089Z,35.30
2024-02-03T17:10:50.371Z,35.48
2024-02-03T17:13:17.994Z,35.86
2024-02-03T17:15:45.556Z,36.12
2024-02-03T17:18:13.039Z,36.49
2024-02-03T17:20:40.699Z,36.74
2024-02-03T17:23:08.707Z,37.34
2024-02-03T17:25:36.315Z,37.63
2024-02-03T17:28:04.909Z,37.79
2024-02-03T17:30:32.375Z,38.23
2024-02-03T17:32:59.519Z,38.88
2024-02-03T17:35:27.845Z,39.27
2024-02-03T17:37:55.057Z,39.51
2024-02-03T17:40:22.412Z,39.85
2024-02-03T17:42:51.005Z,40.04
2024-02-03T17:45:19.175Z,39.92
2024-02-03T17:47:47.822Z,40.20
2024-02-03T17:50:19.098Z,40.32
2024-02-03T17:52:47.533Z,40.41
2024-02-03T17:55:16.551Z,40.74
2024-02-03T17:57:46.537Z,40.67
2024-02-03T18:00:15.099Z,41.09
2024-02-03T18:02:44.292Z,41.10
2024-02-03T18:05:12.626Z,41.12
2024-02-03T18:07:42.226Z,41.13
2024-02-03T18:10:12.188Z,41.56
2024-02-03T18:12:42.448Z,41.60
2024-02-03T18:15:11.299Z,41.62
2024-02-03T18:17:39.284Z,41.98
2024-02-03T18:20:09.911Z,41.98
2024-02-03T18:22:37.404Z,42.21
2024-02-03T18:25:06.045Z,42.63
2024-02-03T18:27:34.335Z,42.45
2024-02-03T18:30:02.058Z,42.73
2024-02-03T18:32:30.726Z,43.04
2024-02-03T18:34:58.413Z,43.09
2024-02-03T18:37:26.482Z,43.12
2024-02-03T18:39:54.509Z,43.23
2024-02-03T18:42:23.965Z,43.41
2024-02-03T18:44:51.672Z,43.66
2024-02-03T18:47:19.561Z,43.92
2024-02-03T18:49:47.660Z,44.16
2024-02-03T18:52:15.598Z,44.27
2024-02-03T18:54:45.124Z,44.32
2024-02-03T18:57:14.388Z,44.07
2024-02-03T18:59:42.536Z,44.71
2024-02-03T19:02:10.591Z,45.08
2024-02-03T19:04:38.282Z,45.35
2024-02-03T19:07:07.263Z,45.72
2024-02-03T19:09:38.597Z,46.01
2024-02-03T19:12:10.236Z,46.18
2024-02-03T19:14:38.236Z,46.25
2024-02-03T19:17:06.607Z,46.19
2024-02-03T19:19:37.278Z,46.29
2024-02-03T19:22:06.456Z,46.37
2024-02-03T19:24:35.758Z,46.07
2024-02-03T19:27:04.204Z,45.79
2024-02-03T19:29:32.217Z,45.70
2024-02-03T19:32:00.047Z,45.75
2024-02-03T19:34:33.101Z,46.08
2024-02-03T19:37:01.863Z,46.32
2024-02-03T19:39:30.476Z,46.54
2024-02-03T19:41:58.284Z,46.77
2024-02-03T19:44:26.885Z,46.94
2024-02-03T19:46:57.171Z,47.51
2024-02-03T19:49:25.233Z,47.74
2024-02-03T19:51:53.283Z,48.28
2024-02-03T19:54:20.836Z,48.32
2024-02-03T19:56:48.323Z,48.06
2024-02-03T19:59:17.760Z,48.09
2024-02-03T20:01:45.670Z,47.47
2024-02-03T20:04:14.178Z,48.10
2024-02-03T20:06:41.754Z,48.39
2024-02-03T20:09:10.055Z,48.56
2024-02-03T20:11:38.241Z,48.88
2024-02-03T20:14:06.504Z,48.95
2024-02-03T20:16:34.484Z,49.28
2024-02-03T20:19:01.996Z,49.40
2024-02-03T20:21:29.354Z,49.72
2024-02-03T20:23:57.647Z,49.91
2024-02-03T20:26:25.951Z,49.85
2024-02-03T20:28:54.798Z,50.34
2024-02-03T20:31:22.639Z,50.83
2024-02-03T20:33:50.657Z,51.53
2024-02-03T20:36:17.908Z,51.40
2024-02-03T20:38:45.418Z,51.98
2024-02-03T20:41:20.422Z,52.51
2024-02-03T20:43:48.157Z,52.31
2024-02-03T20:46:16.206Z,52.27
2024-02-03T20:48:44.360Z,52.47
2024-02-03T20:51:12.494Z,52.40
2024-02-03T20:53:40.871Z,52.61
2024-02-03T20:56:09.376Z,52.52
2024-02-03T20:58:38.652Z,52.05
2024-02-03T21:01:06.332Z,51.92
2024-02-03T21:03:34.220Z,51.86
2024-02-03T21:06:02.001Z,52.08
2024-02-03T21:08:30.867Z,52.22
2024-02-03T21:10:59.856Z,52.66
2024-02-03T21:13:27.627Z,52.74
2024-02-03T21:15:55.656Z,51.96
2024-02-03T21:18:25.397Z,51.54
2024-02-03T21:20:53.651Z,50.72
2024-02-03T21:23:22.005Z,51.08
2024-02-03T21:25:50.515Z,51.04
2024-02-03T21:28:18.853Z,51.20
2024-02-03T21:30:47.615Z,51.59
2024-02-03T21:33:15.436Z,52.03
2024-02-03T21:35:43.025Z,52.62
2024-02-03T21:38:10.576Z,53.01
2024-02-03T21:40:41.679Z,53.57
2024-02-03T21:43:09.975Z,53.67
2024-02-03T21:45:37.785Z,53.60
2024-02-03T21:48:06.767Z,53.68
2024-02-03T21:50:34.514Z,53.51
2024-02-03T21:53:02.722Z,53.77
2024-02-03T21:55:30.645Z,53.31
2024-02-03T21:57:58.386Z,53.10
2024-02-03T22:00:26.965Z,53.47
2024-02-03T22:02:54.714Z,53.76
2024-02-03T22:05:22.670Z,53.98
2024-02-03T22:07:52.336Z,54.01
2024-02-03T22:10:20.588Z,53.00
2024-02-03T22:12:50.110Z,52.55
2024-02-03T22:15:18.698Z,52.97
2024-02-03T22:17:46.187Z,53.36
2024-02-03T22:20:14.398Z,53.56
2024-02-03T22:22:42.184Z,54.30
2024-02-03T22:25:10.120Z,55.22
2024-02-03T22:27:40.036Z,55.48
2024-02-03T22:30:11.221Z,55.29
2024-02-03T22:32:39.557Z,54.78
2024-02-03T22:35:07.637Z,54.14
2024-02-03T22:37:36.876Z,53.56
2024-02-03T22:40:05.543Z,53.70
2024-02-03T22:42:33.384Z,53.88
2024-02-03T22:45:01.098Z,54.11
2024-02-03T22:47:28.550Z,54.33
2024-02-03T22:49:57.373Z,54.35
2024-02-03T22:52:26.245Z,54.49
2024-02-03T22:54:54.428Z,54.30
2024-02-03T22:57:22.179Z,54.47
2024-02-03T22:59:50.342Z,54.57
2024-02-03T23:02:18.435Z,54.49
2024-02-03T23:04:46.016Z,54.42
2024-02-03T23:07:13.472Z,54.30
2024-02-03T23:09:41.092Z,54.48
2024-02-03T23:12:11.536Z,54.69
2024-02-03T23:14:39.240Z,54.96
2024-02-03T23:17:06.589Z,54.61
2024-02-03T23:19:33.931Z,54.17
2024-02-03T23:22:02.250Z,54.18
2024-02-03T23:24:30.052Z,54.60
2024-02-03T23:26:57.792Z,54.95
2024-02-03T23:29:25.165Z,55.31
2024-02-03T23:31:52.312Z,55.23
2024-02-03T23:34:20.740Z,54.60
2024-02-03T23:36:48.529Z,54.49
2024-02-03T23:39:17.069Z,54.56
2024-02-03T23:41:44.921Z,54.59
2024-02-03T23:44:12.724Z,54.62
2024-02-03T23:46:39.788Z,54.49
2024-02-03T23:49:06.780Z,54.40
2024-02-03T23:51:34.477Z,54.83
2024-02-03T23:54:02.951Z,55.14
2024-02-03T23:56:30.267Z,54.90
2024-02-03T23:58:57.448Z,54.46
